Time;durP1;ratioP1;P1;durP2;ratioP2;P2;SDS_P1;SDS_P2;PMS_P1;PMS_P2;Temp;Humidity;BMP_temperature;BMP_pressure;BME280_temperature;BME280_humidity;BME280_pressure;Samples;Min_cycle;Max_cycle;Signal;HPM_P1;HPM_P2
2024/01/30 00:01:52;;;;;;;28.05;18.67;;;;;;;;;;5099908;28;20051;-69
2024/01/30 00:04:18;;;;;;;23.98;17.95;;;;;;;;;;5112377;28;20066;-69
2024/01/30 00:06:44;;;;;;;28.00;17.92;;;;;;;;;;5094005;28;20043;-69
2024/01/30 00:09:10;;;;;;;29.38;17.83;;;;;;;;;;5111338;28;20039;-69
2024/01/30 00:11:37;;;;;;;26.60;18.40;;;;;;;;;;5110663;28;20083;-69
2024/01/30 00:14:03;;;;;;;25.70;18.05;;;;;;;;;;5093957;28;20528;-69
2024/01/30 00:16:29;;;;;;;26.73;18.05;;;;;;;;;;5110556;28;20043;-69
2024/01/30 00:18:55;;;;;;;28.45;18.88;;;;;;;;;;5110620;28;20074;-69
2024/01/30 00:21:21;;;;;;;34.42;18.48;;;;;;;;;;5104955;28;20068;-69
2024/01/30 00:23:47;;;;;;;23.60;17.15;;;;;;;;;;5090509;28;20047;-69
2024/01/30 00:26:17;;;;;;;24.48;17.90;;;;;;;;;;5102393;28;20454;-69
2024/01/30 00:28:43;;;;;;;29.05;17.83;;;;;;;;;;5110833;28;20046;-69
2024/01/30 00:31:12;;;;;;;26.33;18.13;;;;;;;;;;5073232;28;20112;-69
2024/01/30 00:33:39;;;;;;;27.20;17.67;;;;;;;;;;5097275;28;20044;-69
2024/01/30 00:36:05;;;;;;;24.58;17.25;;;;;;;;;;5110876;28;20083;-69
2024/01/30 00:38:32;;;;;;;28.73;18.23;;;;;;;;;;5095530;28;20059;-69
2024/01/30 00:40:58;;;;;;;24.88;17.05;;;;;;;;;;5091328;28;20123;-69
2024/01/30 00:43:27;;;;;;;22.48;16.95;;;;;;;;;;5110033;28;20135;-69
2024/01/30 00:45:53;;;;;;;26.08;17.80;;;;;;;;;;5109631;28;20118;-69
2024/01/30 00:48:19;;;;;;;25.67;16.98;;;;;;;;;;5093483;28;20035;-69
2024/01/30 00:50:46;;;;;;;27.67;17.23;;;;;;;;;;5094130;28;20042;-69
2024/01/30 00:53:11;;;;;;;23.80;16.45;;;;;;;;;;5092052;28;20054;-69
2024/01/30 00:55:37;;;;;;;23.15;16.50;;;;;;;;;;5110424;28;20122;-69
2024/01/30 00:58:04;;;;;;;22.17;16.70;;;;;;;;;;5093206;28;20036;-69
2024/01/30 01:00:30;;;;;;;24.90;15.80;;;;;;;;;;5109911;28;20091;-69
2024/01/30 01:02:56;;;;;;;25.95;17.85;;;;;;;;;;5092388;28;20048;-69
2024/01/30 01:05:22;;;;;;;24.70;16.75;;;;;;;;;;5093273;28;20042;-69
2024/01/30 01:07:48;;;;;;;24.40;15.90;;;;;;;;;;5110135;28;20511;-69
2024/01/30 01:10:16;;;;;;;25.55;16.95;;;;;;;;;;5109455;28;20036;-69
2024/01/30 01:12:42;;;;;;;26.23;17.90;;;;;;;;;;5095928;28;20126;-69
2024/01/30 01:15:11;;;;;;;24.05;17.05;;;;;;;;;;5107946;28;20096;-69
2024/01/30 01:17:38;;;;;;;25.08;16.63;;;;;;;;;;5104861;28;20135;-69
2024/01/30 01:20:05;;;;;;;25.42;17.20;;;;;;;;;;5090298;28;20040;-69
2024/01/30 01:22:31;;;;;;;23.92;16.52;;;;;;;;;;5088981;28;20044;-69
2024/01/30 01:24:57;;;;;;;26.40;16.90;;;;;;;;;;5089479;28;20457;-69
2024/01/30 01:27:23;;;;;;;24.58;16.15;;;;;;;;;;5090580;28;20085;-69
2024/01/30 01:29:49;;;;;;;28.50;18.33;;;;;;;;;;5089170;28;20036;-69
2024/01/30 01:32:15;;;;;;;25.10;16.92;;;;;;;;;;5090001;28;20504;-69
2024/01/30 01:34:42;;;;;;;24.30;17.02;;;;;;;;;;5086685;28;20115;-69
2024/01/30 01:37:08;;;;;;;23.58;16.90;;;;;;;;;;5108114;28;20040;-69
2024/01/30 01:39:34;;;;;;;26.02;16.30;;;;;;;;;;5088716;28;20040;-69
2024/01/30 01:42:00;;;;;;;28.80;17.23;;;;;;;;;;5099194;28;20032;-69
2024/01/30 01:44:26;;;;;;;27.27;17.42;;;;;;;;;;5092123;28;20562;-69
2024/01/30 01:46:52;;;;;;;25.88;17.58;;;;;;;;;;5109379;28;20039;-69
2024/01/30 01:49:19;;;;;;;29.38;17.98;;;;;;;;;;5108758;28;20036;-69
2024/01/30 01:51:45;;;;;;;26.33;17.67;;;;;;;;;;5088400;28;20471;-69
2024/01/30 01:54:12;;;;;;;28.33;17.20;;;;;;;;;;5088740;28;20131;-69
2024/01/30 01:56:38;;;;;;;26.58;17.63;;;;;;;;;;5087349;28;20054;-69
2024/01/30 01:59:08;;;;;;;23.73;17.90;;;;;;;;;;5105210;28;20047;-69
2024/01/30 02:01:34;;;;;;;23.67;17.23;;;;;;;;;;5108724;28;20417;-69
2024/01/30 02:04:01;;;;;;;25.15;16.08;;;;;;;;;;5108099;28;20035;-69
2024/01/30 02:06:27;;;;;;;23.08;17.10;;;;;;;;;;5108496;28;20036;-69
2024/01/30 02:08:53;;;;;;;26.35;16.90;;;;;;;;;;5091904;28;20051;-69
2024/01/30 02:11:20;;;;;;;26.33;15.85;;;;;;;;;;5108700;28;20043;-69
2024/01/30 02:13:47;;;;;;;24.98;16.80;;;;;;;;;;5102816;28;20035;-69
2024/01/30 02:16:13;;;;;;;24.48;17.00;;;;;;;;;;5099679;28;20512;-69
2024/01/30 02:18:43;;;;;;;28.15;17.40;;;;;;;;;;5091522;28;20085;-69
2024/01/30 02:21:09;;;;;;;24.48;16.33;;;;;;;;;;5108432;28;20050;-69
2024/01/30 02:23:35;;;;;;;23.92;17.55;;;;;;;;;;5087901;28;20047;-69
2024/01/30 02:26:01;;;;;;;28.75;16.85;;;;;;;;;;5095137;28;20023;-69
2024/01/30 02:28:27;;;;;;;26.50;17.10;;;;;;;;;;5108781;28;20361;-69
2024/01/30 02:30:53;;;;;;;23.13;16.90;;;;;;;;;;5108110;28;20035;-69
2024/01/30 02:33:21;;;;;;;23.02;17.48;;;;;;;;;;5108144;28;20104;-69
2024/01/30 02:35:47;;;;;;;23.30;17.38;;;;;;;;;;5108368;28;20051;-69
2024/01/30 02:38:13;;;;;;;25.13;16.67;;;;;;;;;;5108371;28;20040;-69
2024/01/30 02:40:39;;;;;;;28.13;17.42;;;;;;;;;;5108228;28;20079;-69
2024/01/30 02:43:05;;;;;;;26.00;16.20;;;;;;;;;;5092220;28;20449;-69
2024/01/30 02:45:31;;;;;;;24.50;17.08;;;;;;;;;;5090113;28;20127;-69
2024/01/30 02:47:57;;;;;;;24.63;17.45;;;;;;;;;;5091354;28;20063;-69
2024/01/30 02:50:23;;;;;;;26.23;17.48;;;;;;;;;;5108394;28;20445;-69
2024/01/30 02:52:49;;;;;;;28.17;17.52;;;;;;;;;;5108087;28;20043;-69
2024/01/30 02:55:17;;;;;;;24.77;17.15;;;;;;;;;;5107998;28;20054;-69
2024/01/30 02:57:43;;;;;;;24.70;17.20;;;;;;;;;;5108300;28;20108;-69
2024/01/30 03:00:10;;;;;;;24.83;17.25;;;;;;;;;;5107937;28;20477;-69
2024/01/30 03:02:36;;;;;;;23.88;16.98;;;;;;;;;;5097198;28;20478;-69
2024/01/30 03:05:03;;;;;;;24.98;16.92;;;;;;;;;;5087837;28;20044;-69
2024/01/30 03:07:29;;;;;;;27.08;16.02;;;;;;;;;;5106907;28;20405;-69
2024/01/30 03:09:55;;;;;;;22.52;16.50;;;;;;;;;;5111936;28;20405;-69
2024/01/30 03:12:22;;;;;;;29.50;16.92;;;;;;;;;;5112116;28;20044;-69
2024/01/30 03:14:49;;;;;;;27.58;16.92;;;;;;;;;;5099365;28;20512;-69
2024/01/30 03:17:15;;;;;;;24.17;15.95;;;;;;;;;;5111809;28;20086;-69
2024/01/30 03:19:41;;;;;;;25.02;16.83;;;;;;;;;;5111429;28;20039;-69
2024/01/30 03:22:07;;;;;;;27.20;17.13;;;;;;;;;;5092692;28;20036;-69
2024/01/30 03:24:33;;;;;;;23.92;16.38;;;;;;;;;;5090952;28;20070;-69
2024/01/30 03:26:59;;;;;;;24.13;16.20;;;;;;;;;;5091543;28;20506;-69
2024/01/30 03:29:25;;;;;;;29.70;17.92;;;;;;;;;;5091190;28;20057;-69
2024/01/30 03:31:51;;;;;;;21.75;16.33;;;;;;;;;;5091573;28;20474;-69
2024/01/30 03:34:17;;;;;;;23.20;17.27;;;;;;;;;;5091094;28;20089;-69
2024/01/30 03:36:43;;;;;;;24.15;16.90;;;;;;;;;;5091367;28;20036;-69
2024/01/30 03:39:09;;;;;;;22.75;17.38;;;;;;;;;;5105027;28;20486;-69
2024/01/30 03:41:35;;;;;;;23.88;16.58;;;;;;;;;;5111213;28;20047;-69
2024/01/30 03:44:01;;;;;;;23.02;16.60;;;;;;;;;;5111418;28;20040;-69
2024/01/30 03:46:27;;;;;;;31.00;16.85;;;;;;;;;;5094264;28;20124;-69
2024/01/30 03:48:53;;;;;;;27.17;16.30;;;;;;;;;;5111343;28;20481;-69
2024/01/30 03:51:19;;;;;;;25.67;17.00;;;;;;;;;;5078929;28;20032;-69
2024/01/30 03:53:48;;;;;;;23.98;16.48;;;;;;;;;;5075540;28;20063;-69
2024/01/30 03:56:14;;;;;;;24.63;16.65;;;;;;;;;;5111585;28;20035;-69
2024/01/30 03:58:40;;;;;;;24.10;15.77;;;;;;;;;;5101220;28;20678;-69
2024/01/30 04:01:06;;;;;;;25.95;16.45;;;;;;;;;;5090653;28;20498;-69
2024/01/30 04:03:32;;;;;;;24.83;15.77;;;;;;;;;;5106994;28;20054;-69
2024/01/30 04:05:58;;;;;;;23.42;16.17;;;;;;;;;;5090563;28;20378;-69
2024/01/30 04:08:24;;;;;;;22.88;15.75;;;;;;;;;;5073670;28;20097;-69
2024/01/30 04:10:50;;;;;;;24.35;16.30;;;;;;;;;;5101507;28;20040;-69
2024/01/30 04:13:16;;;;;;;23.88;15.93;;;;;;;;;;5093877;28;20063;-69
2024/01/30 04:15:42;;;;;;;20.25;15.30;;;;;;;;;;5110547;28;20039;-69
2024/01/30 04:18:08;;;;;;;22.35;15.55;;;;;;;;;;5110935;28;20032;-69
2024/01/30 04:20:34;;;;;;;24.80;15.77;;;;;;;;;;5103667;28;20074;-69
2024/01/30 04:23:00;;;;;;;23.50;14.48;;;;;;;;;;5101799;28;20035;-69
2024/01/30 04:25:26;;;;;;;21.58;15.15;;;;;;;;;;5110238;28;20039;-69
2024/01/30 04:27:52;;;;;;;22.67;15.63;;;;;;;;;;5111058;28;20043;-69
2024/01/30 04:30:18;;;;;;;24.80;15.50;;;;;;;;;;5110215;28;20044;-69
2024/01/30 04:32:44;;;;;;;23.42;15.77;;;;;;;;;;5110606;28;20398;-69
2024/01/30 04:35:10;;;;;;;22.08;15.38;;;;;;;;;;5110157;28;20066;-69
2024/01/30 04:37:36;;;;;;;22.33;15.27;;;;;;;;;;5110480;28;20122;-69
2024/01/30 04:40:03;;;;;;;25.17;15.85;;;;;;;;;;5110049;28;20044;-69
2024/01/30 04:42:29;;;;;;;21.83;15.02;;;;;;;;;;5109916;28;20036;-69
2024/01/30 04:44:55;;;;;;;22.25;15.75;;;;;;;;;;5109936;28;20035;-69
2024/01/30 04:47:21;;;;;;;21.52;15.07;;;;;;;;;;5110752;28;20043;-69
2024/01/30 04:49:46;;;;;;;21.60;14.95;;;;;;;;;;5109473;28;20053;-69
2024/01/30 04:52:12;;;;;;;23.63;14.95;;;;;;;;;;5089881;28;20089;-69
2024/01/30 04:54:39;;;;;;;21.33;15.13;;;;;;;;;;5097254;28;20042;-69
2024/01/30 04:57:09;;;;;;;20.45;15.38;;;;;;;;;;5110019;28;20126;-69
2024/01/30 04:59:36;;;;;;;23.15;15.52;;;;;;;;;;5110043;28;20118;-69
2024/01/30 05:02:02;;;;;;;23.40;15.23;;;;;;;;;;5109660;28;20558;-69
2024/01/30 05:04:28;;;;;;;19.35;14.02;;;;;;;;;;5109793;28;20043;-69
2024/01/30 05:06:54;;;;;;;21.98;14.50;;;;;;;;;;5100099;28;20036;-69
2024/01/30 05:09:21;;;;;;;20.83;14.57;;;;;;;;;;5072930;28;20531;-69
2024/01/30 05:11:47;;;;;;;22.10;14.95;;;;;;;;;;5106010;28;20039;-69
2024/01/30 05:14:14;;;;;;;23.10;14.88;;;;;;;;;;5106076;28;20117;-69
2024/01/30 05:16:41;;;;;;;22.90;14.50;;;;;;;;;;5104186;28;20051;-69
2024/01/30 05:19:07;;;;;;;24.27;15.05;;;;;;;;;;5092691;28;20594;-69
2024/01/30 05:21:34;;;;;;;22.00;15.07;;;;;;;;;;5109459;28;20039;-69
2024/01/30 05:24:00;;;;;;;22.42;14.60;;;;;;;;;;5091388;28;20067;-69
2024/01/30 05:26:26;;;;;;;21.27;14.95;;;;;;;;;;5093570;28;20065;-69
2024/01/30 05:28:52;;;;;;;20.70;13.77;;;;;;;;;;5109909;28;20040;-69
2024/01/30 05:31:18;;;;;;;21.42;14.85;;;;;;;;;;5091856;28;20035;-69
2024/01/30 05:33:44;;;;;;;19.63;14.63;;;;;;;;;;5109422;28;20046;-69
2024/01/30 05:36:13;;;;;;;24.65;14.70;;;;;;;;;;5108485;28;20043;-69
2024/01/30 05:38:39;;;;;;;22.23;15.30;;;;;;;;;;5108820;28;20052;-69
2024/01/30 05:41:05;;;;;;;23.77;14.93;;;;;;;;;;5107161;27;20120;-69
2024/01/30 05:43:31;;;;;;;26.15;15.48;;;;;;;;;;5102398;28;20046;-69
2024/01/30 05:45:57;;;;;;;22.33;15.02;;;;;;;;;;5108899;28;20043;-69
2024/01/30 05:48:23;;;;;;;21.75;14.25;;;;;;;;;;5109354;28;20610;-69
2024/01/30 05:50:49;;;;;;;19.80;14.77;;;;;;;;;;5108572;28;20132;-69
2024/01/30 05:53:15;;;;;;;23.17;14.57;;;;;;;;;;5109027;28;20047;-69
2024/01/30 05:55:41;;;;;;;22.98;14.75;;;;;;;;;;5108655;28;20035;-69
2024/01/30 05:58:07;;;;;;;21.95;14.48;;;;;;;;;;5107710;28;20054;-69
2024/01/30 06:00:33;;;;;;;25.80;14.85;;;;;;;;;;5108485;28;20063;-69
2024/01/30 06:02:59;;;;;;;22.50;14.85;;;;;;;;;;5108644;28;20048;-69
2024/01/30 06:05:25;;;;;;;20.08;13.25;;;;;;;;;;5108366;28;20036;-69
2024/01/30 06:07:51;;;;;;;22.40;14.57;;;;;;;;;;5091712;28;20035;-69
2024/01/30 06:10:17;;;;;;;19.95;13.35;;;;;;;;;;5108705;28;20108;-69
2024/01/30 06:12:43;;;;;;;22.20;14.77;;;;;;;;;;5095004;28;20043;-69
2024/01/30 06:15:10;;;;;;;20.38;14.52;;;;;;;;;;5090427;28;20048;-69
2024/01/30 06:17:36;;;;;;;23.45;14.45;;;;;;;;;;5108272;28;20046;-69
2024/01/30 06:20:02;;;;;;;19.17;13.95;;;;;;;;;;5108625;28;20122;-69
2024/01/30 06:22:28;;;;;;;23.25;14.88;;;;;;;;;;5105411;28;20048;-69
2024/01/30 06:24:54;;;;;;;19.55;13.98;;;;;;;;;;5088560;28;20160;-69
2024/01/30 06:27:20;;;;;;;23.13;14.20;;;;;;;;;;5087725;28;20043;-69
2024/01/30 06:29:46;;;;;;;22.15;14.27;;;;;;;;;;5088255;28;20040;-69
2024/01/30 06:32:12;;;;;;;19.95;13.55;;;;;;;;;;5105684;28;20217;-69
2024/01/30 06:34:39;;;;;;;25.02;13.88;;;;;;;;;;5091778;28;20043;-69
2024/01/30 06:37:06;;;;;;;22.23;15.00;;;;;;;;;;5107251;28;20040;-68
2024/01/30 06:39:32;;;;;;;20.05;14.50;;;;;;;;;;5096569;28;20039;-68
2024/01/30 06:41:58;;;;;;;21.63;14.23;;;;;;;;;;5107829;28;20040;-70
2024/01/30 06:44:24;;;;;;;20.98;14.15;;;;;;;;;;5112326;28;20401;-72
2024/01/30 06:46:50;;;;;;;19.40;13.80;;;;;;;;;;5112008;28;20155;-70
2024/01/30 06:49:16;;;;;;;23.15;13.60;;;;;;;;;;5112117;28;20575;-70
2024/01/30 06:51:41;;;;;;;19.88;13.35;;;;;;;;;;5100350;28;20036;-70
2024/01/30 06:54:08;;;;;;;21.45;14.43;;;;;;;;;;5083109;28;20039;-69
2024/01/30 06:56:34;;;;;;;21.30;13.68;;;;;;;;;;5111914;28;20044;-69
2024/01/30 06:59:00;;;;;;;21.50;14.60;;;;;;;;;;5112223;28;20039;-70
2024/01/30 07:01:30;;;;;;;21.25;14.20;;;;;;;;;;5111861;28;20643;-69
2024/01/30 07:03:56;;;;;;;22.50;13.73;;;;;;;;;;5094987;28;20642;-69
2024/01/30 07:06:22;;;;;;;19.55;14.23;;;;;;;;;;5112116;28;20047;-69
2024/01/30 07:08:49;;;;;;;25.50;14.57;;;;;;;;;;5092147;28;20028;-69
2024/01/30 07:11:23;;;;;;;19.60;13.07;;;;;;;;;;5108636;28;20043;-69
2024/01/30 07:13:49;;;;;;;22.95;13.80;;;;;;;;;;5111955;28;20122;-68
2024/01/30 07:16:15;;;;;;;21.30;13.55;;;;;;;;;;5106431;28;20043;-71
2024/01/30 07:18:41;;;;;;;22.02;14.05;;;;;;;;;;5106716;28;20039;-70
2024/01/30 07:21:07;;;;;;;20.38;13.10;;;;;;;;;;5110187;28;20050;-70
2024/01/30 07:23:34;;;;;;;20.45;14.70;;;;;;;;;;5093217;28;20064;-70
2024/01/30 07:26:00;;;;;;;24.23;14.75;;;;;;;;;;5094977;28;20034;-69
2024/01/30 07:28:26;;;;;;;21.67;13.85;;;;;;;;;;5110928;28;20046;-69
2024/01/30 07:30:52;;;;;;;18.20;13.50;;;;;;;;;;5111530;28;20031;-69
2024/01/30 07:33:18;;;;;;;19.83;13.70;;;;;;;;;;5109634;28;20048;-68
2024/01/30 07:35:45;;;;;;;20.23;13.13;;;;;;;;;;5101417;28;20076;-68
2024/01/30 07:38:11;;;;;;;23.83;14.30;;;;;;;;;;5110633;28;20556;-68
2024/01/30 07:40:37;;;;;;;20.08;14.05;;;;;;;;;;5111512;28;20040;-69
2024/01/30 07:43:03;;;;;;;19.08;13.05;;;;;;;;;;5110699;28;20048;-68
2024/01/30 07:45:33;;;;;;;20.40;14.00;;;;;;;;;;5110870;28;20079;-68
2024/01/30 07:48:02;;;;;;;22.00;13.85;;;;;;;;;;5109390;28;20401;-68
2024/01/30 07:50:28;;;;;;;20.95;13.82;;;;;;;;;;5110227;28;20460;-68
2024/01/30 07:52:54;;;;;;;19.42;13.55;;;;;;;;;;5110009;28;20044;-67
2024/01/30 07:55:24;;;;;;;19.67;13.43;;;;;;;;;;5110295;28;20549;-67
2024/01/30 07:57:51;;;;;;;20.38;13.13;;;;;;;;;;5109231;28;20055;-67
2024/01/30 08:00:17;;;;;;;21.77;13.98;;;;;;;;;;5110319;28;20092;-67
2024/01/30 08:02:55;;;;;;;21.67;13.57;;;;;;;;;;5110532;28;20048;-67
2024/01/30 08:05:25;;;;;;;19.23;13.35;;;;;;;;;;5112939;28;20043;-68
2024/01/30 08:07:51;;;;;;;22.17;12.88;;;;;;;;;;5110511;28;20039;-68
2024/01/30 08:10:18;;;;;;;19.73;13.18;;;;;;;;;;5110519;28;20694;-68
2024/01/30 08:12:44;;;;;;;18.92;13.60;;;;;;;;;;5110950;28;20122;-68
2024/01/30 08:15:12;;;;;;;20.75;13.77;;;;;;;;;;5090209;28;20036;-68
2024/01/30 08:17:41;;;;;;;21.92;13.02;;;;;;;;;;5111744;28;20486;-68
2024/01/30 08:20:08;;;;;;;20.77;13.00;;;;;;;;;;5110414;28;20455;-71
2024/01/30 08:22:34;;;;;;;23.90;13.68;;;;;;;;;;5110469;28;20086;-71
2024/01/30 08:25:00;;;;;;;19.02;11.88;;;;;;;;;;5110900;28;20048;-71
2024/01/30 08:27:26;;;;;;;17.92;11.95;;;;;;;;;;5107293;28;20050;-71
2024/01/30 08:29:52;;;;;;;18.33;12.63;;;;;;;;;;5109674;28;20134;-72
2024/01/30 08:32:18;;;;;;;18.73;12.30;;;;;;;;;;5110812;28;20043;-70
2024/01/30 08:34:44;;;;;;;21.55;12.00;;;;;;;;;;5093383;28;20078;-70
2024/01/30 08:37:10;;;;;;;20.80;12.52;;;;;;;;;;5110528;28;20367;-70
2024/01/30 08:39:36;;;;;;;19.77;12.18;;;;;;;;;;5109286;28;20069;-69
2024/01/30 08:42:02;;;;;;;17.40;11.90;;;;;;;;;;5102159;28;20484;-69
2024/01/30 08:44:28;;;;;;;21.08;12.98;;;;;;;;;;5110226;28;20436;-69
2024/01/30 08:46:54;;;;;;;19.33;12.73;;;;;;;;;;5110263;28;20050;-69
2024/01/30 08:49:21;;;;;;;20.60;11.93;;;;;;;;;;5109434;28;20119;-71
2024/01/30 08:51:47;;;;;;;21.77;12.48;;;;;;;;;;5110040;28;20067;-71
2024/01/30 08:54:13;;;;;;;19.10;12.43;;;;;;;;;;5111181;28;20051;-70
2024/01/30 08:56:39;;;;;;;19.77;12.68;;;;;;;;;;5109948;28;20047;-72
2024/01/30 08:59:05;;;;;;;16.60;11.70;;;;;;;;;;5101065;28;20370;-71
2024/01/30 09:01:31;;;;;;;20.50;12.27;;;;;;;;;;5110097;28;20084;-71
2024/01/30 09:03:57;;;;;;;23.20;12.93;;;;;;;;;;5109380;28;20126;-70
2024/01/30 09:06:24;;;;;;;17.40;12.40;;;;;;;;;;5084310;28;20127;-69
2024/01/30 09:08:50;;;;;;;21.73;12.57;;;;;;;;;;5105787;28;20104;-69
2024/01/30 09:11:16;;;;;;;20.65;12.18;;;;;;;;;;5101446;28;20036;-70
2024/01/30 09:13:43;;;;;;;18.13;11.98;;;;;;;;;;5109662;28;20052;-69
2024/01/30 09:16:09;;;;;;;20.38;12.02;;;;;;;;;;5091243;28;20092;-69
2024/01/30 09:18:35;;;;;;;17.70;11.82;;;;;;;;;;5108939;28;20039;-70
2024/01/30 09:21:01;;;;;;;17.60;11.70;;;;;;;;;;5101672;28;20051;-69
2024/01/30 09:23:30;;;;;;;19.38;12.10;;;;;;;;;;5107012;28;20120;-71
2024/01/30 09:25:56;;;;;;;18.42;11.77;;;;;;;;;;5099237;28;20040;-71
2024/01/30 09:28:22;;;;;;;20.38;11.65;;;;;;;;;;5107612;28;20043;-71
2024/01/30 09:30:48;;;;;;;20.30;11.63;;;;;;;;;;5084957;28;20058;-72
2024/01/30 09:33:14;;;;;;;18.75;12.02;;;;;;;;;;5109359;28;20047;-73
2024/01/30 09:35:40;;;;;;;19.25;12.57;;;;;;;;;;5109118;28;20071;-70
2024/01/30 09:38:06;;;;;;;17.95;12.35;;;;;;;;;;5091921;28;20101;-71
2024/01/30 09:40:32;;;;;;;19.02;11.82;;;;;;;;;;5108663;28;20126;-74
2024/01/30 09:43:02;;;;;;;19.45;12.30;;;;;;;;;;5091602;28;20131;-73
2024/01/30 09:45:28;;;;;;;20.10;12.57;;;;;;;;;;5106117;28;20052;-69
2024/01/30 09:47:54;;;;;;;19.35;11.95;;;;;;;;;;5108564;28;20172;-71
2024/01/30 09:50:20;;;;;;;19.67;11.60;;;;;;;;;;5091400;28;20044;-71
2024/01/30 09:52:46;;;;;;;16.10;11.20;;;;;;;;;;5103318;28;20039;-71
2024/01/30 09:55:13;;;;;;;19.77;11.82;;;;;;;;;;5108626;28;20097;-70
2024/01/30 09:57:39;;;;;;;21.23;12.05;;;;;;;;;;5108640;28;20036;-71
2024/01/30 10:00:09;;;;;;;20.00;11.88;;;;;;;;;;5103285;28;20036;-72
2024/01/30 10:02:39;;;;;;;20.83;11.35;;;;;;;;;;5092368;28;20076;-72
2024/01/30 10:05:05;;;;;;;18.30;11.75;;;;;;;;;;5088445;28;20039;-68
2024/01/30 10:07:31;;;;;;;18.02;11.60;;;;;;;;;;5101281;28;20745;-68
2024/01/30 10:09:57;;;;;;;20.60;12.40;;;;;;;;;;5091603;28;20093;-67
2024/01/30 10:12:24;;;;;;;21.42;11.88;;;;;;;;;;5104011;28;20043;-68
2024/01/30 10:14:50;;;;;;;15.80;11.20;;;;;;;;;;5110027;28;20043;-68
2024/01/30 10:17:16;;;;;;;21.27;12.32;;;;;;;;;;5103011;27;20048;-67
2024/01/30 10:19:42;;;;;;;20.98;11.70;;;;;;;;;;5114126;27;20046;-69
2024/01/30 10:22:08;;;;;;;21.10;11.57;;;;;;;;;;5113910;27;20036;-69
2024/01/30 10:24:35;;;;;;;18.65;11.93;;;;;;;;;;5107228;27;20039;-68
2024/01/30 10:27:01;;;;;;;19.50;11.98;;;;;;;;;;5115356;27;20027;-69
2024/01/30 10:29:27;;;;;;;17.67;11.55;;;;;;;;;;5117593;27;20078;-68
2024/01/30 10:32:00;;;;;;;17.88;11.32;;;;;;;;;;5108670;28;20100;-73
2024/01/30 10:34:26;;;;;;;20.40;11.38;;;;;;;;;;5105480;28;20071;-70
2024/01/30 10:36:53;;;;;;;17.23;10.88;;;;;;;;;;5107014;28;20050;-72
2024/01/30 10:39:20;;;;;;;19.67;11.82;;;;;;;;;;5107361;28;20040;-72
2024/01/30 10:41:48;;;;;;;21.50;11.75;;;;;;;;;;5082618;28;20071;-71
2024/01/30 10:44:18;;;;;;;18.20;12.15;;;;;;;;;;5105690;28;20097;-71
2024/01/30 10:46:46;;;;;;;20.20;11.73;;;;;;;;;;5103256;28;20035;-73
2024/01/30 10:49:13;;;;;;;18.75;11.82;;;;;;;;;;5106779;28;20028;-70
2024/01/30 10:51:39;;;;;;;20.83;11.70;;;;;;;;;;5101610;28;20078;-69
2024/01/30 10:54:07;;;;;;;18.25;11.80;;;;;;;;;;5103548;28;20063;-69
2024/01/30 10:56:34;;;;;;;19.23;11.73;;;;;;;;;;5096620;28;20640;-72
2024/01/30 10:59:00;;;;;;;18.02;12.20;;;;;;;;;;5103122;28;20122;-71
2024/01/30 11:01:27;;;;;;;24.17;11.20;;;;;;;;;;5101896;28;20055;-71
2024/01/30 11:03:54;;;;;;;19.17;10.95;;;;;;;;;;5109417;28;20031;-70
2024/01/30 11:06:23;;;;;;;19.25;12.35;;;;;;;;;;5116627;28;20039;-70
2024/01/30 11:09:09;;;;;;;19.67;12.45;;;;;;;;;;5085536;28;20036;-70
2024/01/30 11:11:54;;;;;;;18.88;12.25;;;;;;;;;;5109779;28;20128;-70
2024/01/30 11:14:27;;;;;;;23.00;12.80;;;;;;;;;;5097507;28;20036;-70
2024/01/30 11:16:53;;;;;;;25.48;13.13;;;;;;;;;;5102433;28;20046;-72
2024/01/30 11:19:26;;;;;;;24.13;13.43;;;;;;;;;;5103520;28;20082;-70
2024/01/30 11:21:54;;;;;;;22.55;13.23;;;;;;;;;;5101578;28;20035;-69
2024/01/30 11:24:21;;;;;;;22.67;12.98;;;;;;;;;;5076761;28;20044;-69
2024/01/30 11:26:49;;;;;;;26.25;13.25;;;;;;;;;;5098123;28;20107;-69
2024/01/30 11:29:15;;;;;;;20.85;12.40;;;;;;;;;;5093474;28;20678;-70
2024/01/30 11:31:51;;;;;;;19.58;13.23;;;;;;;;;;5104972;28;20077;-70
2024/01/30 11:34:19;;;;;;;24.85;13.23;;;;;;;;;;5109779;28;20046;-69
2024/01/30 11:36:46;;;;;;;27.38;13.70;;;;;;;;;;5090996;28;20126;-70
2024/01/30 11:39:12;;;;;;;21.25;14.07;;;;;;;;;;5100585;28;20050;-73
2024/01/30 11:41:39;;;;;;;24.27;14.48;;;;;;;;;;5105701;28;20043;-73
2024/01/30 11:44:05;;;;;;;28.55;14.38;;;;;;;;;;5100891;28;20569;-73
2024/01/30 11:46:31;;;;;;;22.25;14.02;;;;;;;;;;5088655;28;20401;-70
2024/01/30 11:48:57;;;;;;;24.08;13.45;;;;;;;;;;5109037;28;20046;-70
2024/01/30 11:51:23;;;;;;;22.73;13.52;;;;;;;;;;5106634;28;20120;-70
2024/01/30 11:53:52;;;;;;;23.33;13.38;;;;;;;;;;5108252;28;20601;-70
2024/01/30 11:56:18;;;;;;;26.42;13.32;;;;;;;;;;5105066;28;20044;-70
2024/01/30 11:58:44;;;;;;;29.05;14.32;;;;;;;;;;5106673;28;20397;-70
2024/01/30 12:01:13;;;;;;;23.58;13.20;;;;;;;;;;5098457;28;20186;-72
2024/01/30 12:03:39;;;;;;;22.50;13.43;;;;;;;;;;5099016;28;20216;-70
2024/01/30 12:06:06;;;;;;;22.10;13.30;;;;;;;;;;5109302;28;20475;-73
2024/01/30 12:08:32;;;;;;;21.20;13.10;;;;;;;;;;5108840;28;20529;-72
2024/01/30 12:10:58;;;;;;;27.60;14.50;;;;;;;;;;5108101;28;20031;-72
2024/01/30 12:13:26;;;;;;;28.40;14.18;;;;;;;;;;5108259;28;20048;-72
2024/01/30 12:15:52;;;;;;;28.38;13.52;;;;;;;;;;5104993;28;20044;-72
2024/01/30 12:18:21;;;;;;;22.70;10.55;;;;;;;;;;5095555;28;20043;-71
2024/01/30 12:20:58;;;;;;;22.15;10.27;;;;;;;;;;5106859;28;20049;-71
2024/01/30 12:23:25;;;;;;;22.55;9.55;;;;;;;;;;5108438;28;20059;-71
2024/01/30 12:25:51;;;;;;;18.67;8.63;;;;;;;;;;5108424;28;20040;-71
2024/01/30 12:28:17;;;;;;;12.85;6.68;;;;;;;;;;5091437;28;20040;-67
2024/01/30 12:30:43;;;;;;;17.10;7.22;;;;;;;;;;5102546;27;20042;-68
2024/01/30 12:33:10;;;;;;;12.82;5.53;;;;;;;;;;5116906;27;20684;-68
2024/01/30 12:35:36;;;;;;;11.88;5.57;;;;;;;;;;5112753;27;20039;-68
2024/01/30 12:38:02;;;;;;;9.90;4.95;;;;;;;;;;5112669;27;20599;-68
2024/01/30 12:40:28;;;;;;;11.40;3.83;;;;;;;;;;5104722;27;20154;-68
2024/01/30 12:42:54;;;;;;;10.63;3.95;;;;;;;;;;5115167;27;20039;-68
2024/01/30 12:45:21;;;;;;;7.28;3.60;;;;;;;;;;5120617;27;20442;-68
2024/01/30 12:47:48;;;;;;;8.30;3.08;;;;;;;;;;5114346;27;20046;-68
2024/01/30 12:50:15;;;;;;;5.43;2.78;;;;;;;;;;5109327;27;20192;-68
2024/01/30 12:52:42;;;;;;;6.70;2.60;;;;;;;;;;5108858;28;20482;-70
2024/01/30 12:55:08;;;;;;;6.28;2.03;;;;;;;;;;5108207;28;20043;-70
2024/01/30 12:57:34;;;;;;;4.80;2.10;;;;;;;;;;5110097;28;20036;-70
2024/01/30 13:00:00;;;;;;;2.40;1.90;;;;;;;;;;5090789;28;20043;-69
2024/01/30 13:02:30;;;;;;;5.22;2.17;;;;;;;;;;5104717;28;20043;-70
2024/01/30 13:04:56;;;;;;;7.68;2.67;;;;;;;;;;5104064;28;20051;-70
2024/01/30 13:07:22;;;;;;;4.13;2.28;;;;;;;;;;5105117;28;20046;-70
2024/01/30 13:09:48;;;;;;;5.63;2.33;;;;;;;;;;5103732;28;20027;-71
2024/01/30 13:12:14;;;;;;;6.95;2.60;;;;;;;;;;5104566;28;20036;-70
2024/01/30 13:14:39;;;;;;;4.30;2.88;;;;;;;;;;5108804;28;20637;-70
2024/01/30 13:17:06;;;;;;;3.88;2.15;;;;;;;;;;5095772;28;20085;-70
2024/01/30 13:19:31;;;;;;;6.15;1.98;;;;;;;;;;5080366;28;20046;-70
2024/01/30 13:21:58;;;;;;;5.95;1.80;;;;;;;;;;5087561;28;20486;-71
2024/01/30 13:24:24;;;;;;;4.53;1.80;;;;;;;;;;5102664;28;20047;-70
2024/01/30 13:26:50;;;;;;;4.20;1.60;;;;;;;;;;5096032;28;20199;-70
2024/01/30 13:29:16;;;;;;;2.47;1.80;;;;;;;;;;5090134;28;20173;-70
2024/01/30 13:31:44;;;;;;;5.45;2.10;;;;;;;;;;5097664;28;20036;-70
2024/01/30 13:34:10;;;;;;;4.13;1.90;;;;;;;;;;5109320;28;20052;-71
2024/01/30 13:36:36;;;;;;;5.95;1.73;;;;;;;;;;5096709;28;20042;-71
2024/01/30 13:39:02;;;;;;;3.92;1.60;;;;;;;;;;5094512;28;20042;-71
2024/01/30 13:41:29;;;;;;;3.78;1.77;;;;;;;;;;5097934;28;20079;-71
2024/01/30 13:43:55;;;;;;;11.20;2.78;;;;;;;;;;5095671;28;20501;-71
2024/01/30 13:46:22;;;;;;;4.45;2.55;;;;;;;;;;5107616;28;20046;-70
2024/01/30 13:48:48;;;;;;;7.18;3.03;;;;;;;;;;5103825;28;20114;-70
2024/01/30 13:51:14;;;;;;;6.30;2.90;;;;;;;;;;5108139;28;20128;-70
2024/01/30 13:53:40;;;;;;;6.47;3.28;;;;;;;;;;5108636;28;20040;-69
2024/01/30 13:56:07;;;;;;;6.90;3.00;;;;;;;;;;5107426;28;20044;-69
2024/01/30 13:58:33;;;;;;;5.40;2.30;;;;;;;;;;5108281;28;20062;-71
2024/01/30 14:00:59;;;;;;;3.67;2.20;;;;;;;;;;5102948;28;20448;-67
2024/01/30 14:03:25;;;;;;;5.55;2.53;;;;;;;;;;5100397;28;20632;-67
2024/01/30 14:05:51;;;;;;;5.50;2.00;;;;;;;;;;5092500;28;20036;-68
2024/01/30 14:08:17;;;;;;;5.95;2.28;;;;;;;;;;5096644;28;20040;-70
2024/01/30 14:10:44;;;;;;;5.97;2.30;;;;;;;;;;5105436;28;20038;-71
2024/01/30 14:13:11;;;;;;;5.07;1.98;;;;;;;;;;5108012;28;20126;-69
2024/01/30 14:15:37;;;;;;;4.07;2.33;;;;;;;;;;5107506;28;20518;-68
2024/01/30 14:18:03;;;;;;;8.23;2.40;;;;;;;;;;5106703;28;20078;-68